Time;durP1;ratioP1;P1;durP2;ratioP2;P2;SDS_P1;SDS_P2;PMS_P1;PMS_P2;Temp;Humidity;BMP_temperature;BMP_pressure;BME280_temperature;BME280_humidity;BME280_pressure;Samples;Min_cycle;Max_cycle;Signal;HPM_P1;HPM_P2
2024/03/24 00:01:32;;;;;;;8.48;4.40;;;3.10;99.90;;;;;;5114145;28;20107;-83
2024/03/24 00:03:57;;;;;;;9.60;4.90;;;3.10;99.90;;;;;;5096561;28;20041;-83
2024/03/24 00:06:23;;;;;;;8.30;5.22;;;3.10;99.90;;;;;;5098647;28;20386;-83
2024/03/24 00:08:49;;;;;;;7.10;4.50;;;3.00;99.90;;;;;;5087743;28;20111;-82
2024/03/24 00:11:15;;;;;;;8.32;4.65;;;3.00;99.90;;;;;;5093478;28;20435;-82
2024/03/24 00:13:41;;;;;;;6.18;3.85;;;3.00;99.90;;;;;;5103514;28;20051;-82
2024/03/24 00:16:08;;;;;;;7.28;3.90;;;3.00;99.90;;;;;;5089681;28;20062;-81
2024/03/24 00:18:34;;;;;;;6.32;3.95;;;3.00;99.90;;;;;;5114964;28;20369;-82
2024/03/24 00:20:59;;;;;;;4.85;4.20;;;2.90;99.90;;;;;;5113955;28;20024;-82
2024/03/24 00:23:25;;;;;;;7.00;4.72;;;3.00;99.90;;;;;;5104358;28;20069;-82
2024/03/24 00:25:51;;;;;;;5.40;4.03;;;3.00;99.90;;;;;;5105641;28;20027;-82
2024/03/24 00:28:16;;;;;;;8.77;3.90;;;2.90;99.90;;;;;;5082789;28;20409;-82
2024/03/24 00:30:42;;;;;;;7.65;4.50;;;3.00;99.90;;;;;;5076132;28;20016;-82
2024/03/24 00:33:08;;;;;;;9.10;4.80;;;3.00;99.90;;;;;;5076221;28;20119;-82
2024/03/24 00:35:33;;;;;;;8.48;4.75;;;3.00;99.90;;;;;;5076439;28;20020;-82
2024/03/24 00:37:59;;;;;;;6.28;3.83;;;3.00;99.90;;;;;;5094240;28;20036;-82
2024/03/24 00:40:25;;;;;;;7.05;3.63;;;3.00;99.90;;;;;;5077032;28;20012;-82
2024/03/24 00:42:51;;;;;;;5.80;4.18;;;3.00;99.90;;;;;;5095046;28;20016;-82
2024/03/24 00:45:17;;;;;;;11.93;4.70;;;3.00;99.90;;;;;;5094833;28;20023;-81
2024/03/24 00:47:42;;;;;;;8.55;5.30;;;3.00;99.90;;;;;;5075948;28;20023;-82
2024/03/24 00:50:09;;;;;;;7.43;4.38;;;3.00;99.90;;;;;;5077340;28;20012;-82
2024/03/24 00:52:35;;;;;;;15.50;8.80;;;3.10;99.90;;;;;;5094729;28;20028;-81
2024/03/24 00:55:01;;;;;;;18.73;13.85;;;3.10;99.90;;;;;;5082472;28;20025;-82
2024/03/24 00:57:27;;;;;;;27.13;12.43;;;3.10;99.90;;;;;;5076353;28;20042;-83
2024/03/24 00:59:53;;;;;;;16.10;7.75;;;3.20;99.90;;;;;;5095570;28;20488;-83
2024/03/24 01:02:19;;;;;;;15.65;8.57;;;3.10;99.90;;;;;;5075848;28;20016;-83
2024/03/24 01:04:44;;;;;;;17.38;7.85;;;3.00;99.90;;;;;;5094705;28;20474;-82
2024/03/24 01:07:10;;;;;;;12.23;6.93;;;3.00;99.90;;;;;;5069771;28;20027;-82
2024/03/24 01:09:35;;;;;;;7.07;5.10;;;3.00;99.90;;;;;;5095322;28;20082;-83
2024/03/24 01:12:01;;;;;;;6.63;5.15;;;3.00;99.90;;;;;;5094568;28;20532;-83
2024/03/24 01:14:28;;;;;;;6.93;5.97;;;2.90;99.90;;;;;;5094456;28;20063;-82
2024/03/24 01:16:54;;;;;;;7.75;6.10;;;2.90;99.90;;;;;;5075959;28;20040;-83
2024/03/24 01:19:20;;;;;;;10.63;6.72;;;2.90;99.90;;;;;;5076093;28;20599;-83
2024/03/24 01:21:46;;;;;;;15.93;7.38;;;2.90;99.90;;;;;;5075293;28;20165;-83
2024/03/24 01:24:11;;;;;;;17.58;8.20;;;2.90;99.90;;;;;;5076078;28;20012;-82
2024/03/24 01:26:37;;;;;;;12.48;6.57;;;2.80;99.90;;;;;;5073697;28;20060;-82
2024/03/24 01:29:03;;;;;;;13.40;6.57;;;2.80;99.90;;;;;;5077593;28;20020;-83
2024/03/24 01:31:28;;;;;;;19.92;7.50;;;2.80;99.90;;;;;;5083480;28;20040;-83
2024/03/24 01:33:54;;;;;;;15.50;7.90;;;2.80;99.90;;;;;;5076778;28;20530;-83
2024/03/24 01:36:19;;;;;;;13.90;7.20;;;2.90;99.90;;;;;;5095217;28;20534;-83
2024/03/24 01:38:45;;;;;;;18.98;8.23;;;2.90;99.90;;;;;;5100798;28;20089;-83
2024/03/24 01:41:11;;;;;;;15.68;8.43;;;2.90;99.90;;;;;;5091783;28;20028;-82
2024/03/24 01:43:36;;;;;;;10.60;7.03;;;2.90;99.90;;;;;;5063817;28;20044;-82
2024/03/24 01:46:03;;;;;;;12.80;6.53;;;2.90;99.90;;;;;;5083179;28;20024;-83
2024/03/24 01:48:29;;;;;;;14.55;7.55;;;2.90;99.90;;;;;;5077744;28;20110;-83
2024/03/24 01:50:55;;;;;;;16.70;7.93;;;2.90;99.90;;;;;;5112946;28;20016;-83
2024/03/24 01:53:21;;;;;;;10.27;6.05;;;2.80;99.90;;;;;;5094202;28;20034;-83
2024/03/24 01:55:47;;;;;;;10.77;6.28;;;2.80;99.90;;;;;;5103246;28;20035;-83
2024/03/24 01:58:12;;;;;;;12.10;5.82;;;2.80;99.90;;;;;;5093842;28;20385;-82
2024/03/24 02:00:39;;;;;;;10.80;6.35;;;2.80;99.90;;;;;;5089630;28;20011;-82
2024/03/24 02:03:04;;;;;;;12.27;5.65;;;2.80;99.90;;;;;;5074524;28;20024;-82
2024/03/24 02:05:30;;;;;;;11.02;5.90;;;2.80;99.90;;;;;;5104768;28;20370;-83
2024/03/24 02:07:56;;;;;;;13.40;8.02;;;2.70;99.90;;;;;;5091929;28;20019;-84
2024/03/24 02:10:28;;;;;;;28.02;12.38;;;2.70;99.90;;;;;;5094685;28;20024;-83
2024/03/24 02:12:54;;;;;;;15.20;8.60;;;2.60;99.90;;;;;;5103089;28;20039;-83
2024/03/24 02:15:20;;;;;;;17.15;8.57;;;2.60;99.90;;;;;;5112398;28;20104;-84
2024/03/24 02:17:45;;;;;;;11.57;7.45;;;2.60;99.90;;;;;;5106965;28;20603;-83
2024/03/24 02:20:15;;;;;;;17.42;7.60;;;2.40;99.90;;;;;;5108720;28;20030;-84
2024/03/24 02:22:42;;;;;;;18.10;8.52;;;2.40;99.90;;;;;;5101876;28;20031;-83
2024/03/24 02:25:08;;;;;;;15.18;9.23;;;2.40;99.90;;;;;;5107755;28;20028;-82
2024/03/24 02:27:34;;;;;;;15.68;9.80;;;2.40;99.90;;;;;;5093908;28;20059;-83
2024/03/24 02:30:00;;;;;;;17.60;8.65;;;2.40;99.90;;;;;;5092657;28;20048;-82
2024/03/24 02:32:26;;;;;;;13.23;7.85;;;2.40;99.90;;;;;;5093634;28;20114;-82
2024/03/24 02:34:52;;;;;;;16.00;7.13;;;2.40;99.90;;;;;;5105211;28;20442;-82
2024/03/24 02:37:18;;;;;;;10.70;7.03;;;2.30;99.90;;;;;;5090824;28;20127;-82
2024/03/24 02:39:44;;;;;;;11.43;6.15;;;2.20;99.90;;;;;;5074379;28;20054;-83
2024/03/24 02:42:10;;;;;;;14.45;7.38;;;2.10;99.90;;;;;;5083102;28;20393;-82
2024/03/24 02:44:37;;;;;;;11.10;7.40;;;2.10;99.90;;;;;;5069385;28;20040;-82
2024/03/24 02:47:03;;;;;;;13.75;7.18;;;2.10;99.90;;;;;;5086128;28;20020;-82
2024/03/24 02:49:28;;;;;;;13.30;7.07;;;2.10;99.90;;;;;;5091818;28;20047;-82
2024/03/24 02:51:54;;;;;;;12.10;7.22;;;2.00;99.90;;;;;;5074117;28;20021;-83
2024/03/24 02:54:20;;;;;;;10.63;7.03;;;2.00;99.90;;;;;;5073401;28;20012;-82
2024/03/24 02:56:45;;;;;;;10.77;6.88;;;1.90;99.90;;;;;;5091770;28;20028;-83
2024/03/24 02:59:11;;;;;;;10.27;6.40;;;1.90;99.90;;;;;;5089746;28;20024;-82
2024/03/24 03:01:37;;;;;;;15.18;8.18;;;1.90;99.90;;;;;;5083050;28;20232;-83
2024/03/24 03:04:03;;;;;;;15.48;7.32;;;1.80;99.90;;;;;;5101449;28;20072;-83
2024/03/24 03:06:30;;;;;;;14.40;7.13;;;1.80;99.90;;;;;;5092766;28;20051;-83
2024/03/24 03:08:55;;;;;;;14.68;7.43;;;1.70;99.90;;;;;;5093290;28;20387;-83
2024/03/24 03:11:21;;;;;;;13.32;7.13;;;1.70;99.90;;;;;;5093883;28;20114;-82
2024/03/24 03:13:47;;;;;;;12.27;7.30;;;1.60;99.90;;;;;;5079074;28;20476;-82
2024/03/24 03:16:12;;;;;;;11.25;6.88;;;1.50;99.90;;;;;;5093274;28;20028;-82
2024/03/24 03:18:38;;;;;;;15.65;7.43;;;1.50;99.90;;;;;;5091999;28;20061;-82
2024/03/24 03:21:04;;;;;;;11.45;7.72;;;1.50;99.90;;;;;;5111478;28;20432;-82
2024/03/24 03:23:30;;;;;;;13.07;7.80;;;1.40;99.90;;;;;;5109311;28;20480;-82
2024/03/24 03:25:55;;;;;;;15.95;7.78;;;1.40;99.90;;;;;;5114339;28;20020;-82
2024/03/24 03:28:21;;;;;;;12.63;6.65;;;1.30;99.90;;;;;;5094084;28;20036;-82
2024/03/24 03:30:47;;;;;;;12.55;6.97;;;1.30;99.90;;;;;;5114561;28;20024;-82
2024/03/24 03:33:13;;;;;;;14.35;6.85;;;1.20;99.90;;;;;;5112697;28;20106;-82
2024/03/24 03:35:39;;;;;;;11.38;6.88;;;1.20;99.90;;;;;;5071018;28;20040;-82
2024/03/24 03:38:05;;;;;;;13.57;7.32;;;1.20;99.90;;;;;;5092164;28;20024;-83
2024/03/24 03:40:31;;;;;;;13.40;7.50;;;1.20;99.90;;;;;;5095488;28;20028;-83
2024/03/24 03:42:56;;;;;;;14.65;9.02;;;1.10;99.90;;;;;;5093273;28;20023;-82
2024/03/24 03:45:24;;;;;;;16.50;9.80;;;1.10;99.90;;;;;;5115264;28;20091;-83
2024/03/24 03:47:50;;;;;;;15.98;10.02;;;1.10;99.90;;;;;;5101380;28;20015;-83
2024/03/24 03:50:17;;;;;;;17.95;8.80;;;1.20;99.90;;;;;;5104991;28;20017;-82
2024/03/24 03:52:55;;;;;;;14.88;9.10;;;1.20;99.90;;;;;;5093693;28;20550;-82
2024/03/24 03:55:20;;;;;;;15.23;8.48;;;1.20;99.90;;;;;;5091851;28;20124;-81
2024/03/24 03:57:46;;;;;;;23.10;8.95;;;1.30;99.90;;;;;;5093733;28;20507;-82
2024/03/24 04:00:12;;;;;;;20.42;11.02;;;1.30;99.90;;;;;;5114918;28;20098;-82
2024/03/24 04:02:44;;;;;;;16.90;9.10;;;1.30;99.90;;;;;;5114409;28;20019;-82
2024/03/24 04:05:09;;;;;;;16.77;9.82;;;1.30;99.90;;;;;;5110242;28;20034;-82
2024/03/24 04:07:38;;;;;;;21.02;11.30;;;1.40;99.90;;;;;;5108172;28;20012;-83
2024/03/24 04:10:05;;;;;;;21.88;13.20;;;1.40;99.90;;;;;;5089788;28;20418;-83
2024/03/24 04:12:31;;;;;;;21.45;13.02;;;1.30;99.90;;;;;;5101094;28;20118;-83
2024/03/24 04:15:01;;;;;;;22.20;12.73;;;1.30;99.90;;;;;;5096393;28;20028;-83
2024/03/24 04:17:31;;;;;;;18.98;11.82;;;1.20;99.90;;;;;;5088424;28;20069;-83
2024/03/24 04:19:58;;;;;;;19.58;12.43;;;1.30;99.90;;;;;;5100589;28;20099;-84
2024/03/24 04:22:24;;;;;;;23.67;12.18;;;1.30;99.90;;;;;;5096005;28;20026;-83
2024/03/24 04:24:49;;;;;;;24.00;12.63;;;1.40;99.90;;;;;;5094605;28;20024;-82
2024/03/24 04:27:16;;;;;;;25.63;14.68;;;1.40;99.90;;;;;;5101875;28;20047;-82
2024/03/24 04:29:42;;;;;;;32.55;15.52;;;1.50;99.90;;;;;;5094205;28;20012;-82
2024/03/24 04:32:08;;;;;;;20.75;12.55;;;1.50;99.90;;;;;;5089021;28;20059;-83
2024/03/24 04:34:34;;;;;;;26.67;13.88;;;1.50;99.90;;;;;;5071120;28;20016;-83
2024/03/24 04:37:00;;;;;;;23.55;13.48;;;1.50;99.90;;;;;;5082635;28;20065;-83
2024/03/24 04:39:26;;;;;;;31.73;17.30;;;1.60;99.90;;;;;;5094163;28;20020;-84
2024/03/24 04:41:51;;;;;;;34.85;17.58;;;1.60;99.90;;;;;;5102361;28;20031;-83
2024/03/24 04:44:17;;;;;;;33.00;17.23;;;1.60;99.90;;;;;;5095560;28;20027;-83
2024/03/24 04:46:43;;;;;;;31.85;15.45;;;1.60;99.90;;;;;;5114094;28;20388;-84
2024/03/24 04:49:09;;;;;;;33.15;16.83;;;1.70;99.90;;;;;;5080978;28;20024;-84
2024/03/24 04:51:34;;;;;;;29.38;14.75;;;1.70;99.90;;;;;;5092880;28;20012;-83
2024/03/24 04:54:01;;;;;;;20.33;13.27;;;1.70;99.90;;;;;;5107478;28;20100;-84
2024/03/24 04:56:27;;;;;;;22.35;13.93;;;1.70;99.90;;;;;;5105878;28;20446;-84
2024/03/24 04:58:53;;;;;;;19.60;11.88;;;1.80;99.90;;;;;;5075446;28;20063;-84
2024/03/24 05:01:19;;;;;;;18.58;11.00;;;1.80;99.90;;;;;;5092705;28;20028;-84
2024/03/24 05:03:44;;;;;;;19.67;10.75;;;1.80;99.90;;;;;;5085143;28;20020;-84
2024/03/24 05:06:10;;;;;;;23.42;12.35;;;1.80;99.90;;;;;;5095408;28;20039;-83
2024/03/24 05:08:38;;;;;;;19.77;11.35;;;1.80;99.90;;;;;;5093059;28;20050;-83
2024/03/24 05:11:09;;;;;;;20.77;11.93;;;1.80;99.90;;;;;;5083982;28;20394;-83
2024/03/24 05:13:35;;;;;;;23.67;13.07;;;1.90;99.90;;;;;;5110447;28;20114;-82
2024/03/24 05:16:01;;;;;;;21.38;13.27;;;1.90;99.90;;;;;;5084649;28;20080;-83
2024/03/24 05:18:27;;;;;;;26.65;14.63;;;1.90;99.90;;;;;;5111722;28;20399;-83
2024/03/24 05:20:53;;;;;;;26.08;14.05;;;1.90;99.90;;;;;;5112834;28;20077;-83
2024/03/24 05:23:19;;;;;;;30.73;14.90;;;2.00;99.90;;;;;;5110870;28;20036;-83
2024/03/24 05:25:55;;;;;;;28.45;15.13;;;2.00;99.90;;;;;;5094232;28;20027;-83
2024/03/24 05:28:21;;;;;;;30.25;17.55;;;2.00;99.90;;;;;;5111055;28;20074;-83
2024/03/24 05:30:49;;;;;;;33.40;19.65;;;2.10;99.90;;;;;;5096901;28;20028;-83
2024/03/24 05:33:16;;;;;;;31.70;16.73;;;2.20;99.90;;;;;;5076961;28;20161;-83
2024/03/24 05:35:42;;;;;;;31.50;16.90;;;2.20;99.90;;;;;;5082000;28;20071;-84
2024/03/24 05:38:08;;;;;;;29.05;16.90;;;2.20;99.90;;;;;;5090780;28;20434;-84
2024/03/24 05:40:34;;;;;;;28.02;14.60;;;2.30;99.90;;;;;;5093575;28;20024;-84
2024/03/24 05:42:59;;;;;;;29.10;15.05;;;2.30;99.90;;;;;;5093543;28;20488;-83
2024/03/24 05:45:25;;;;;;;29.25;15.68;;;2.40;99.90;;;;;;5093288;28;20081;-83
2024/03/24 05:47:51;;;;;;;21.77;12.80;;;2.50;99.90;;;;;;5085060;28;20024;-83
2024/03/24 05:50:17;;;;;;;34.35;18.83;;;2.60;99.90;;;;;;5105037;28;20480;-83
2024/03/24 05:52:43;;;;;;;32.85;18.42;;;2.80;99.90;;;;;;5098547;28;20091;-83
2024/03/24 05:55:09;;;;;;;30.10;17.23;;;2.80;99.90;;;;;;5102141;28;20487;-82
2024/03/24 05:57:35;;;;;;;31.13;17.30;;;2.90;99.90;;;;;;5074541;28;20481;-83
2024/03/24 06:00:03;;;;;;;34.90;17.58;;;2.90;99.90;;;;;;5087283;28;20021;-83
2024/03/24 06:02:29;;;;;;;34.67;16.88;;;3.00;99.90;;;;;;5089256;28;20019;-82
2024/03/24 06:04:54;;;;;;;30.67;17.60;;;3.20;99.90;;;;;;5068711;28;20392;-84
2024/03/24 06:07:22;;;;;;;28.95;15.93;;;3.20;99.90;;;;;;5074038;28;20031;-84
2024/03/24 06:09:49;;;;;;;28.40;17.25;;;3.30;99.90;;;;;;5073575;28;20051;-83
2024/03/24 06:12:14;;;;;;;33.08;18.35;;;3.30;99.90;;;;;;5066367;28;20020;-83
2024/03/24 06:14:40;;;;;;;30.55;17.25;;;3.40;99.90;;;;;;5083241;28;20040;-83
2024/03/24 06:17:07;;;;;;;30.67;17.48;;;3.50;99.90;;;;;;5083155;28;20032;-82
2024/03/24 06:19:36;;;;;;;27.27;15.88;;;3.50;99.90;;;;;;5112581;28;20028;-83
2024/03/24 06:22:01;;;;;;;24.48;15.90;;;3.60;99.90;;;;;;5090634;28;20061;-83
2024/03/24 06:24:27;;;;;;;29.13;16.38;;;3.60;99.90;;;;;;5109505;28;20482;-83
2024/03/24 06:26:53;;;;;;;26.48;16.23;;;3.60;99.90;;;;;;5088943;28;20488;-83
2024/03/24 06:29:19;;;;;;;34.33;18.15;;;3.70;99.90;;;;;;5079110;28;20035;-83
2024/03/24 06:31:44;;;;;;;28.67;17.38;;;3.70;99.90;;;;;;5087045;28;20496;-83
2024/03/24 06:34:10;;;;;;;33.05;18.92;;;3.80;99.90;;;;;;5097498;28;20055;-83
2024/03/24 06:36:40;;;;;;;30.10;18.55;;;3.80;99.90;;;;;;5091987;28;20028;-83
2024/03/24 06:39:06;;;;;;;33.60;18.60;;;3.80;99.90;;;;;;5083420;28;20052;-83
2024/03/24 06:41:38;;;;;;;33.58;19.73;;;3.90;99.90;;;;;;5109237;28;20043;-84
2024/03/24 06:44:12;;;;;;;27.95;16.92;;;3.90;99.90;;;;;;5082543;28;20024;-84
2024/03/24 06:46:42;;;;;;;29.92;17.48;;;4.00;99.90;;;;;;5099453;28;20020;-83
2024/03/24 06:49:08;;;;;;;29.95;17.73;;;4.20;99.90;;;;;;5093451;28;20022;-83
2024/03/24 06:51:34;;;;;;;34.33;17.58;;;4.10;99.90;;;;;;5109356;28;20028;-84
2024/03/24 06:54:00;;;;;;;28.88;17.67;;;4.20;99.90;;;;;;5087458;28;20043;-83
2024/03/24 06:56:26;;;;;;;28.08;16.70;;;4.30;99.90;;;;;;5088880;28;20468;-84
2024/03/24 06:58:52;;;;;;;33.38;18.13;;;4.30;99.90;;;;;;5086058;28;20030;-84
2024/03/24 07:01:20;;;;;;;29.05;17.17;;;4.30;99.90;;;;;;5111020;28;20028;-84
2024/03/24 07:03:46;;;;;;;33.10;18.17;;;4.40;99.90;;;;;;5082771;28;20021;-84
2024/03/24 07:06:13;;;;;;;29.52;17.73;;;4.40;99.90;;;;;;5065855;28;20017;-85
2024/03/24 07:08:42;;;;;;;26.92;18.90;;;4.50;99.90;;;;;;5075956;28;20055;-84
2024/03/24 07:11:08;;;;;;;30.85;17.45;;;4.50;99.90;;;;;;5111392;28;20031;-85
2024/03/24 07:13:34;;;;;;;29.75;17.17;;;4.60;99.90;;;;;;5102418;28;20093;-84
2024/03/24 07:16:00;;;;;;;31.48;17.80;;;4.70;99.90;;;;;;5097806;28;20054;-84
2024/03/24 07:18:26;;;;;;;27.50;17.48;;;4.80;99.90;;;;;;5079261;28;20047;-84
2024/03/24 07:21:06;;;;;;;33.67;18.58;;;4.90;99.90;;;;;;5090274;28;20474;-84
2024/03/24 07:23:32;;;;;;;29.35;16.98;;;4.90;99.90;;;;;;5085803;28;20029;-84
2024/03/24 07:25:57;;;;;;;25.92;16.25;;;4.90;99.90;;;;;;5085788;28;20035;-84
2024/03/24 07:28:23;;;;;;;26.83;15.55;;;5.00;99.90;;;;;;5086210;28;20393;-85
2024/03/24 07:30:49;;;;;;;22.02;14.55;;;5.20;99.90;;;;;;5107402;28;20073;-84
2024/03/24 07:33:14;;;;;;;20.30;14.48;;;5.30;99.90;;;;;;5108369;28;20027;-84
2024/03/24 07:35:41;;;;;;;28.92;15.40;;;5.60;99.90;;;;;;5085912;28;20024;-84
2024/03/24 07:38:06;;;;;;;24.23;14.23;;;5.60;99.90;;;;;;5092097;28;20055;-83
2024/03/24 07:40:33;;;;;;;26.10;14.57;;;5.70;99.90;;;;;;5110438;28;20044;-84
2024/03/24 07:42:59;;;;;;;19.08;13.20;;;5.70;99.90;;;;;;5106971;28;20461;-85
2024/03/24 07:45:24;;;;;;;23.55;14.27;;;5.60;99.90;;;;;;5077109;28;20027;-84
2024/03/24 07:47:51;;;;;;;27.63;13.43;;;5.70;99.90;;;;;;5092282;28;20016;-84
2024/03/24 07:50:17;;;;;;;30.88;15.00;;;5.60;99.90;;;;;;5109090;28;20065;-85
2024/03/24 07:52:43;;;;;;;26.23;14.55;;;5.50;99.90;;;;;;5106647;28;20039;-83
2024/03/24 07:55:08;;;;;;;18.60;10.55;;;5.50;99.90;;;;;;5081611;28;20501;-86
2024/03/24 07:57:34;;;;;;;12.35;8.10;;;5.70;99.90;;;;;;5097146;28;20099;-85
2024/03/24 08:00:00;;;;;;;14.93;8.57;;;5.80;99.90;;;;;;5083573;28;20119;-85
2024/03/24 08:02:26;;;;;;;13.85;7.78;;;6.10;99.90;;;;;;5072649;28;20024;-86
2024/03/24 08:04:52;;;;;;;10.98;7.65;;;6.20;99.90;;;;;;5093310;28;20031;-85
2024/03/24 08:07:17;;;;;;;15.73;6.93;;;6.10;99.00;;;;;;5095126;28;20028;-85
2024/03/24 08:09:43;;;;;;;11.52;7.32;;;6.20;93.30;;;;;;5094818;28;20024;-85
2024/03/24 08:12:08;;;;;;;10.05;6.38;;;6.40;90.60;;;;;;5066806;28;20012;-85
2024/03/24 08:14:34;;;;;;;9.27;6.60;;;6.70;90.00;;;;;;5067194;28;20576;-86
2024/03/24 08:17:00;;;;;;;10.93;6.82;;;6.70;88.50;;;;;;5100092;28;20029;-85
2024/03/24 08:19:26;;;;;;;11.02;6.72;;;6.60;86.00;;;;;;5078638;28;20146;-86
2024/03/24 08:21:52;;;;;;;8.60;6.75;;;6.60;83.80;;;;;;5112021;28;20381;-87
2024/03/24 08:24:18;;;;;;;13.75;7.50;;;6.50;85.90;;;;;;5089739;28;20102;-84
2024/03/24 08:26:44;;;;;;;9.82;7.18;;;6.40;84.20;;;;;;5106058;28;20056;-84
2024/03/24 08:29:10;;;;;;;15.98;10.00;;;6.30;83.00;;;;;;5083908;28;20042;-84
2024/03/24 08:31:36;;;;;;;11.70;6.68;;;6.30;85.10;;;;;;5096119;28;20469;-84
2024/03/24 08:34:01;;;;;;;9.32;6.53;;;6.30;83.40;;;;;;5088985;28;20027;-86
2024/03/24 08:36:27;;;;;;;13.20;8.32;;;6.40;84.80;;;;;;5098124;28;20027;-86
2024/03/24 08:38:53;;;;;;;13.50;6.85;;;6.50;87.80;;;;;;5082219;28;20024;-84
2024/03/24 08:41:19;;;;;;;13.32;8.32;;;6.70;87.90;;;;;;5085496;28;20058;-86
2024/03/24 08:43:44;;;;;;;11.65;7.65;;;6.80;87.30;;;;;;5096133;28;20024;-85
2024/03/24 08:46:10;;;;;;;11.77;8.00;;;7.00;88.30;;;;;;5092849;28;20024;-85
2024/03/24 08:48:36;;;;;;;14.00;9.38;;;7.00;84.90;;;;;;5103905;28;20024;-87
2024/03/24 08:51:01;;;;;;;23.75;13.00;;;6.90;85.00;;;;;;5100457;28;20527;-86
2024/03/24 08:53:27;;;;;;;22.10;14.23;;;6.80;91.40;;;;;;5081719;28;20012;-84
2024/03/24 08:55:52;;;;;;;21.60;14.32;;;6.60;95.40;;;;;;5086177;28;20027;-84
2024/03/24 08:58:18;;;;;;;20.75;14.57;;;6.30;99.50;;;;;;5089075;28;20399;-84
2024/03/24 09:00:47;;;;;;;16.73;10.88;;;6.00;99.90;;;;;;5103671;28;20381;-84
2024/03/24 09:03:13;;;;;;;24.88;15.52;;;5.90;99.90;;;;;;5069142;28;20008;-84
2024/03/24 09:05:38;;;;;;;11.48;8.98;;;5.80;99.90;;;;;;5086154;28;20038;-84
2024/03/24 09:08:04;;;;;;;15.77;9.77;;;5.60;99.90;;;;;;5092358;28;20468;-85
2024/03/24 09:10:30;;;;;;;25.77;16.30;;;5.50;99.90;;;;;;5085072;28;20025;-85
2024/03/24 09:12:56;;;;;;;25.42;15.35;;;5.30;99.90;;;;;;5101991;28;20019;-83
2024/03/24 09:15:22;;;;;;;21.10;14.27;;;4.90;99.90;;;;;;5100004;28;20024;-83
2024/03/24 09:17:49;;;;;;;43.03;23.42;;;4.70;99.90;;;;;;5067327;28;20051;-84
2024/03/24 09:20:15;;;;;;;22.80;13.75;;;4.50;99.90;;;;;;5080667;28;20021;-83
2024/03/24 09:22:41;;;;;;;68.45;34.80;;;4.20;99.90;;;;;;5062711;28;20106;-83
2024/03/24 09:25:07;;;;;;;80.72;40.22;;;3.80;99.90;;;;;;5065277;28;20513;-83
2024/03/24 09:27:33;;;;;;;157.43;71.65;;;3.50;99.90;;;;;;5085234;28;20036;-84
2024/03/24 09:29:59;;;;;;;117.95;65.25;;;3.20;99.90;;;;;;5061140;28;20093;-83
2024/03/24 09:32:25;;;;;;;77.50;39.80;;;2.90;99.90;;;;;;5062134;28;20102;-83
2024/03/24 09:34:53;;;;;;;74.88;32.17;;;2.90;99.90;;;;;;5093868;28;20015;-83
2024/03/24 09:37:19;;;;;;;56.90;23.98;;;2.80;99.90;;;;;;5088321;28;20042;-81
2024/03/24 09:39:44;;;;;;;48.67;20.65;;;2.80;99.90;;;;;;5082582;28;20019;-81
2024/03/24 09:42:15;;;;;;;52.88;20.20;;;2.80;99.90;;;;;;5094373;28;20107;-82
2024/03/24 09:44:41;;;;;;;30.10;16.48;;;2.80;99.90;;;;;;5099311;28;20020;-82
2024/03/24 09:47:07;;;;;;;40.55;17.63;;;2.80;99.90;;;;;;5101091;28;20031;-83
2024/03/24 09:49:35;;;;;;;74.20;27.58;;;2.80;99.90;;;;;;5079593;28;20020;-82
2024/03/24 09:52:01;;;;;;;49.80;20.98;;;2.90;99.90;;;;;;5075393;28;20097;-83
2024/03/24 09:54:27;;;;;;;62.42;23.27;;;3.00;99.90;;;;;;5068442;28;20025;-83
2024/03/24 09:56:53;;;;;;;30.23;17.95;;;3.20;99.90;;;;;;5077845;28;20046;-82
2024/03/24 09:59:20;;;;;;;44.78;17.92;;;3.40;99.90;;;;;;5093122;28;20024;-82
2024/03/24 10:01:47;;;;;;;88.97;29.35;;;3.60;99.90;;;;;;5076584;28;20052;-85
2024/03/24 10:04:15;;;;;;;30.42;14.88;;;3.80;99.90;;;;;;5081343;28;20554;-82
2024/03/24 10:06:41;;;;;;;28.73;13.65;;;4.10;99.90;;;;;;5091226;28;20016;-84
2024/03/24 10:09:07;;;;;;;39.10;16.60;;;4.30;99.90;;;;;;5075145;28;20031;-83
2024/03/24 10:11:34;;;;;;;22.08;11.60;;;4.50;99.90;;;;;;5092350;28;20373;-82
2024/03/24 10:14:02;;;;;;;25.50;13.50;;;4.70;99.90;;;;;;5075012;28;20468;-83
2024/03/24 10:16:28;;;;;;;25.58;14.02;;;4.90;99.90;;;;;;5086453;28;20492;-83
2024/03/24 10:18:53;;;;;;;17.65;10.48;;;5.00;99.90;;;;;;5062612;28;20037;-84
2024/03/24 10:21:20;;;;;;;41.33;16.05;;;5.10;99.90;;;;;;5067894;28;20023;-83
2024/03/24 10:23:46;;;;;;;38.58;15.98;;;5.30;99.90;;;;;;5094176;28;20469;-83
2024/03/24 10:26:22;;;;;;;29.92;13.43;;;5.40;99.90;;;;;;5097151;28;20021;-83
2024/03/24 10:28:51;;;;;;;45.75;22.27;;;5.50;99.90;;;;;;5070118;28;20081;-82
2024/03/24 10:31:17;;;;;;;70.88;37.50;;;5.70;99.90;;;;;;5090483;28;20028;-83
2024/03/24 10:33:46;;;;;;;31.70;18.95;;;5.70;99.90;;;;;;5093865;28;20059;-83
2024/03/24 10:36:12;;;;;;;30.42;16.63;;;5.40;99.90;;;;;;5092464;28;20024;-83
2024/03/24 10:38:38;;;;;;;53.10;20.85;;;5.60;99.90;;;;;;5108022;28;20031;-84
2024/03/24 10:41:05;;;;;;;33.17;16.92;;;5.80;99.90;;;;;;5101968;28;20442;-82
2024/03/24 10:43:31;;;;;;;41.63;18.90;;;6.00;99.90;;;;;;5094199;28;20114;-81
2024/03/24 10:45:58;;;;;;;37.53;18.25;;;6.30;99.90;;;;;;5098344;28;20020;-83
2024/03/24 10:48:36;;;;;;;37.05;17.42;;;6.70;99.90;;;;;;5089891;28;20032;-78
2024/03/24 10:51:04;;;;;;;26.60;15.68;;;7.00;99.90;;;;;;5086272;28;20032;-83
2024/03/24 10:53:33;;;;;;;31.27;18.52;;;6.90;99.90;;;;;;5081996;28;20828;-82
2024/03/24 10:56:00;;;;;;;30.00;16.25;;;7.20;99.90;;;;;;5087188;28;20434;-82
2024/03/24 10:58:27;;;;;;;21.95;13.88;;;7.50;99.90;;;;;;5090460;28;20165;-78
2024/03/24 11:00:54;;;;;;;37.38;18.10;;;7.40;99.90;;;;;;5085466;28;20024;-80
2024/03/24 11:03:22;;;;;;;41.03;17.92;;;7.20;99.90;;;;;;5091519;28;20103;-85
2024/03/24 11:05:52;;;;;;;27.40;14.75;;;7.10;99.90;;;;;;5098127;28;20023;-85
2024/03/24 11:08:20;;;;;;;21.33;13.40;;;7.10;99.90;;;;;;5092290;28;20020;-85
2024/03/24 11:10:46;;;;;;;29.48;19.40;;;7.10;99.90;;;;;;5077830;28;20035;-82
2024/03/24 11:13:15;;;;;;;17.08;12.20;;;6.90;99.90;;;;;;5092716;28;20031;-82
2024/03/24 11:15:41;;;;;;;27.58;17.80;;;6.40;99.90;;;;;;5081184;28;20374;-81
2024/03/24 11:18:21;;;;;;;25.45;17.17;;;5.90;99.90;;;;;;5083413;28;20032;-81
2024/03/24 11:20:50;;;;;;;103.35;59.67;;;5.00;99.90;;;;;;5109309;28;20510;-82
2024/03/24 11:23:20;;;;;;;100.15;59.45;;;4.70;99.90;;;;;;5111030;28;20072;-83
2024/03/24 11:25:59;;;;;;;133.90;72.38;;;4.40;99.90;;;;;;5112635;28;20289;-84
2024/03/24 11:28:43;;;;;;;11.40;8.60;;;4.40;99.90;;;;;;5114855;28;20092;-83
2024/03/24 11:31:32;;;;;;;14.43;9.95;;;4.10;99.90;;;;;;5098115;28;20450;-81
2024/03/24 11:34:03;;;;;;;46.22;26.45;;;4.10;99.90;;;;;;5058523;28;20039;-82
2024/03/24 11:36:30;;;;;;;41.78;25.20;;;4.30;99.90;;;;;;5062380;28;20028;-82
2024/03/24 11:38:57;;;;;;;53.03;24.23;;;4.40;99.90;;;;;;5090363;28;20413;-82
2024/03/24 11:41:24;;;;;;;25.77;15.43;;;4.70;99.90;;;;;;5080948;28;20029;-82
2024/03/24 11:43:56;;;;;;;29.55;19.02;;;4.90;99.90;;;;;;5065081;28;20028;-83
2024/03/24 11:46:22;;;;;;;90.50;56.90;;;5.20;99.90;;;;;;5077359;28;20059;-82
2024/03/24 11:48:52;;;;;;;14.73;8.57;;;5.10;99.90;;;;;;5103760;28;20126;-85
2024/03/24 11:51:19;;;;;;;41.53;20.48;;;5.30;99.90;;;;;;5071461;28;20468;-83
2024/03/24 11:53:45;;;;;;;25.05;15.60;;;5.30;99.90;;;;;;5094812;28;20024;-84
2024/03/24 11:56:11;;;;;;;37.42;20.45;;;5.40;99.90;;;;;;5099053;28;20530;-83
2024/03/24 11:58:36;;;;;;;32.72;18.35;;;5.20;99.90;;;;;;5102681;28;20201;-85
2024/03/24 12:01:03;;;;;;;16.85;11.25;;;5.20;99.90;;;;;;5086658;28;20392;-87
2024/03/24 12:03:29;;;;;;;106.72;46.45;;;5.00;99.90;;;;;;5066997;28;20035;-86
2024/03/24 12:05:56;;;;;;;11.43;8.23;;;5.30;99.90;;;;;;5070114;28;20123;-85
2024/03/24 12:08:24;;;;;;;55.97;23.58;;;5.40;99.90;;;;;;5091890;28;20016;-85
2024/03/24 12:10:51;;;;;;;22.13;10.45;;;5.70;99.90;;;;;;5075932;28;20028;-85
2024/03/24 12:13:17;;;;;;;25.20;11.75;;;6.00;99.90;;;;;;5105086;28;20020;-84
2024/03/24 12:15:44;;;;;;;8.05;6.53;;;5.90;99.90;;;;;;5087094;28;20068;-85
2024/03/24 12:18:11;;;;;;;18.77;10.30;;;5.90;99.90;;;;;;5081474;28;20038;-86
2024/03/24 12:20:37;;;;;;;18.25;10.25;;;6.00;99.90;;;;;;5109147;28;20487;-85
2024/03/24 12:23:04;;;;;;;30.92;16.48;;;6.10;95.40;;;;;;5093381;28;20024;-86
2024/03/24 12:25:30;;;;;;;18.02;10.23;;;6.50;96.40;;;;;;5090614;28;20390;-85
2024/03/24 12:27:57;;;;;;;14.38;8.00;;;6.60;92.40;;;;;;5090580;28;20050;-85
2024/03/24 12:30:26;;;;;;;14.35;7.57;;;7.00;99.70;;;;;;5108565;28;20497;-85
2024/03/24 12:32:52;;;;;;;12.15;5.80;;;7.00;83.70;;;;;;5064847;28;20028;-85
2024/03/24 12:35:20;;;;;;;29.33;15.90;;;7.20;83.50;;;;;;5065308;28;20032;-85
2024/03/24 12:37:50;;;;;;;28.65;14.73;;;7.40;87.00;;;;;;5068138;28;20482;-85